Main page
METAR-TAF:

METAR-TAF

Airports :

Base de Almagro

Almagro, Spain

latitude: 38-57-11N, longitude: 3-44-29W, elevation: 629 m

Current weather observation

The report was made 1 hour and 46 minutes ago, at 21:00 UTC
Wind 5 kt from the West/Southwest, varying between South/Southwest and West
Temperature 18°C
Humidity 45%
Pressure 1016 hPa
Visibility 10 km or more
no clouds below 1500 m and no cumulonimbus

METAR: LEAO 052100Z 24005KT 200V270 CAVOK 18/06 Q1016

Time: 00:46 (22:46 UTC)

Forecast

The report was made 2 hours and 46 minutes ago, at 20:00 UTC
Forecast valid from 05 at 21 UTC to 06 at 21 UTC
Wind 5 kt from variable directions
Visibility 10 km or more
no clouds below 1500 m and no cumulonimbus
Becoming
from 06 at 10 UTC to 06 at 12 UTC
Wind 10 kt from the West

TAF: LEAO 052000Z 0521/0621 VRB05KT CAVOK TX27/0616Z TN08/0605Z BECMG 0610/0612 27010KT

Weather observations and forecasts of more than 4000 airports (METAR and TAF reports).

The available stations are represented by yellow and red dots on the map.

Hover mouse over dot to see the name of the station.

Then click to see weather observations and forecasts.

To change the map : click on the green buttons with a black cross to zoom in, on the green button with a dash to zoom out, or on the green arrows for adjacent maps.


METAR-TAF: